sensor_id;sensor_type;location;lat;lon;timestamp;P1;durP1;ratioP1;P2;durP2;ratioP2
9370;SDS011;4725;48.384;8.984;2024-01-30T00:02:03;4.93;;;3.37;;
9370;SDS011;4725;48.384;8.984;2024-01-30T00:04:30;4.63;;;3.27;;
9370;SDS011;4725;48.384;8.984;2024-01-30T00:06:56;5.10;;;3.00;;
9370;SDS011;4725;48.384;8.984;2024-01-30T00:09:25;4.83;;;2.90;;
9370;SDS011;4725;48.384;8.984;2024-01-30T00:11:52;6.77;;;3.13;;
9370;SDS011;4725;48.384;8.984;2024-01-30T00:14:19;4.17;;;3.03;;
9370;SDS011;4725;48.384;8.984;2024-01-30T00:16:46;4.67;;;2.77;;
9370;SDS011;4725;48.384;8.984;2024-01-30T00:19:12;3.53;;;2.70;;
9370;SDS011;4725;48.384;8.984;2024-01-30T00:21:39;4.03;;;2.70;;
9370;SDS011;4725;48.384;8.984;2024-01-30T00:24:06;7.27;;;3.50;;
9370;SDS011;4725;48.384;8.984;2024-01-30T00:26:34;5.27;;;3.27;;
9370;SDS011;4725;48.384;8.984;2024-01-30T00:29:01;4.87;;;3.40;;
9370;SDS011;4725;48.384;8.984;2024-01-30T00:31:28;6.07;;;3.07;;
9370;SDS011;4725;48.384;8.984;2024-01-30T00:33:55;7.40;;;3.23;;
9370;SDS011;4725;48.384;8.984;2024-01-30T00:36:22;4.90;;;2.80;;
9370;SDS011;4725;48.384;8.984;2024-01-30T00:38:49;8.67;;;4.00;;
9370;SDS011;4725;48.384;8.984;2024-01-30T00:41:18;5.00;;;3.70;;
9370;SDS011;4725;48.384;8.984;2024-01-30T00:43:46;5.33;;;3.37;;
9370;SDS011;4725;48.384;8.984;2024-01-30T00:46:13;5.87;;;3.80;;
9370;SDS011;4725;48.384;8.984;2024-01-30T00:48:40;4.40;;;3.30;;
9370;SDS011;4725;48.384;8.984;2024-01-30T00:51:07;4.57;;;3.03;;
9370;SDS011;4725;48.384;8.984;2024-01-30T00:53:34;5.57;;;3.60;;
9370;SDS011;4725;48.384;8.984;2024-01-30T00:56:01;5.63;;;3.47;;
9370;SDS011;4725;48.384;8.984;2024-01-30T00:58:28;6.03;;;3.37;;
9370;SDS011;4725;48.384;8.984;2024-01-30T01:00:57;4.33;;;3.20;;
9370;SDS011;4725;48.384;8.984;2024-01-30T01:03:24;3.87;;;3.00;;
9370;SDS011;4725;48.384;8.984;2024-01-30T01:05:51;5.10;;;3.43;;
9370;SDS011;4725;48.384;8.984;2024-01-30T01:08:17;4.37;;;2.80;;
9370;SDS011;4725;48.384;8.984;2024-01-30T01:10:45;8.23;;;3.27;;
9370;SDS011;4725;48.384;8.984;2024-01-30T01:13:12;4.07;;;3.03;;
9370;SDS011;4725;48.384;8.984;2024-01-30T01:15:39;4.97;;;3.17;;
9370;SDS011;4725;48.384;8.984;2024-01-30T01:18:07;4.60;;;3.30;;
9370;SDS011;4725;48.384;8.984;2024-01-30T01:20:34;3.57;;;3.10;;
9370;SDS011;4725;48.384;8.984;2024-01-30T01:23:01;4.03;;;3.07;;
9370;SDS011;4725;48.384;8.984;2024-01-30T01:25:28;6.17;;;3.60;;
9370;SDS011;4725;48.384;8.984;2024-01-30T01:27:55;3.63;;;2.57;;
9370;SDS011;4725;48.384;8.984;2024-01-30T01:30:22;5.47;;;3.50;;
9370;SDS011;4725;48.384;8.984;2024-01-30T01:32:50;6.13;;;3.57;;
9370;SDS011;4725;48.384;8.984;2024-01-30T01:35:23;4.73;;;2.90;;
9370;SDS011;4725;48.384;8.984;2024-01-30T01:37:50;4.43;;;2.87;;
9370;SDS011;4725;48.384;8.984;2024-01-30T01:40:20;4.27;;;2.83;;
9370;SDS011;4725;48.384;8.984;2024-01-30T01:42:49;3.80;;;2.87;;
9370;SDS011;4725;48.384;8.984;2024-01-30T01:45:17;5.07;;;3.00;;
9370;SDS011;4725;48.384;8.984;2024-01-30T01:47:44;3.47;;;2.67;;
9370;SDS011;4725;48.384;8.984;2024-01-30T01:50:14;4.20;;;3.00;;
9370;SDS011;4725;48.384;8.984;2024-01-30T01:52:45;4.33;;;2.57;;
9370;SDS011;4725;48.384;8.984;2024-01-30T01:55:13;4.50;;;3.20;;
9370;SDS011;4725;48.384;8.984;2024-01-30T01:57:42;4.00;;;2.53;;
9370;SDS011;4725;48.384;8.984;2024-01-30T02:00:10;3.40;;;2.67;;
9370;SDS011;4725;48.384;8.984;2024-01-30T02:02:38;5.27;;;3.13;;
9370;SDS011;4725;48.384;8.984;2024-01-30T02:05:06;4.10;;;2.70;;
9370;SDS011;4725;48.384;8.984;2024-01-30T02:07:34;5.87;;;3.47;;
9370;SDS011;4725;48.384;8.984;2024-01-30T02:10:02;3.70;;;2.90;;
9370;SDS011;4725;48.384;8.984;2024-01-30T02:12:29;5.50;;;2.93;;
9370;SDS011;4725;48.384;8.984;2024-01-30T02:14:56;4.53;;;3.03;;
9370;SDS011;4725;48.384;8.984;2024-01-30T02:17:23;3.80;;;2.77;;
9370;SDS011;4725;48.384;8.984;2024-01-30T02:19:51;6.70;;;3.63;;
9370;SDS011;4725;48.384;8.984;2024-01-30T02:22:19;5.33;;;3.83;;
9370;SDS011;4725;48.384;8.984;2024-01-30T02:24:47;10.00;;;2.67;;
9370;SDS011;4725;48.384;8.984;2024-01-30T02:27:15;6.40;;;3.33;;
9370;SDS011;4725;48.384;8.984;2024-01-30T02:29:41;4.43;;;2.97;;
9370;SDS011;4725;48.384;8.984;2024-01-30T02:32:08;4.40;;;2.73;;
9370;SDS011;4725;48.384;8.984;2024-01-30T02:34:35;4.83;;;2.90;;
9370;SDS011;4725;48.384;8.984;2024-01-30T02:37:02;4.37;;;2.70;;
9370;SDS011;4725;48.384;8.984;2024-01-30T02:39:31;4.47;;;2.57;;
9370;SDS011;4725;48.384;8.984;2024-01-30T02:41:58;3.40;;;2.37;;
9370;SDS011;4725;48.384;8.984;2024-01-30T02:44:25;4.63;;;2.40;;
9370;SDS011;4725;48.384;8.984;2024-01-30T02:46:52;6.10;;;2.97;;
9370;SDS011;4725;48.384;8.984;2024-01-30T02:49:20;5.40;;;3.10;;
9370;SDS011;4725;48.384;8.984;2024-01-30T02:51:47;5.20;;;3.33;;
9370;SDS011;4725;48.384;8.984;2024-01-30T02:54:14;4.03;;;2.90;;
9370;SDS011;4725;48.384;8.984;2024-01-30T02:56:43;8.17;;;3.37;;
9370;SDS011;4725;48.384;8.984;2024-01-30T02:59:09;5.13;;;3.07;;
9370;SDS011;4725;48.384;8.984;2024-01-30T03:01:42;4.50;;;3.00;;
9370;SDS011;4725;48.384;8.984;2024-01-30T03:04:10;4.87;;;2.70;;
9370;SDS011;4725;48.384;8.984;2024-01-30T03:06:37;5.03;;;2.97;;
9370;SDS011;4725;48.384;8.984;2024-01-30T03:09:04;16.13;;;9.03;;
9370;SDS011;4725;48.384;8.984;2024-01-30T03:11:30;8.23;;;5.27;;
9370;SDS011;4725;48.384;8.984;2024-01-30T03:13:59;5.80;;;3.30;;
9370;SDS011;4725;48.384;8.984;2024-01-30T03:16:26;3.20;;;2.50;;
9370;SDS011;4725;48.384;8.984;2024-01-30T03:18:52;3.47;;;2.37;;
9370;SDS011;4725;48.384;8.984;2024-01-30T03:21:19;3.80;;;2.27;;
9370;SDS011;4725;48.384;8.984;2024-01-30T03:23:47;2.80;;;2.40;;
9370;SDS011;4725;48.384;8.984;2024-01-30T03:26:14;3.67;;;2.47;;
9370;SDS011;4725;48.384;8.984;2024-01-30T03:28:41;2.87;;;1.90;;
9370;SDS011;4725;48.384;8.984;2024-01-30T03:31:09;3.03;;;1.80;;
9370;SDS011;4725;48.384;8.984;2024-01-30T03:33:36;3.47;;;2.30;;
9370;SDS011;4725;48.384;8.984;2024-01-30T03:36:04;3.10;;;2.23;;
9370;SDS011;4725;48.384;8.984;2024-01-30T03:38:32;2.47;;;1.70;;
9370;SDS011;4725;48.384;8.984;2024-01-30T03:40:58;3.50;;;2.17;;
9370;SDS011;4725;48.384;8.984;2024-01-30T03:43:26;2.67;;;2.00;;
9370;SDS011;4725;48.384;8.984;2024-01-30T03:45:53;2.67;;;1.80;;
9370;SDS011;4725;48.384;8.984;2024-01-30T03:48:21;2.17;;;1.70;;
9370;SDS011;4725;48.384;8.984;2024-01-30T03:50:48;2.97;;;2.03;;
9370;SDS011;4725;48.384;8.984;2024-01-30T03:53:15;2.77;;;1.70;;
9370;SDS011;4725;48.384;8.984;2024-01-30T03:55:42;1.80;;;1.60;;
9370;SDS011;4725;48.384;8.984;2024-01-30T03:58:09;4.17;;;2.00;;
9370;SDS011;4725;48.384;8.984;2024-01-30T04:00:36;3.20;;;1.90;;
9370;SDS011;4725;48.384;8.984;2024-01-30T04:03:04;2.63;;;2.00;;
9370;SDS011;4725;48.384;8.984;2024-01-30T04:05:32;3.17;;;2.20;;
9370;SDS011;4725;48.384;8.984;2024-01-30T04:07:59;3.63;;;2.47;;
9370;SDS011;4725;48.384;8.984;2024-01-30T04:10:26;4.70;;;3.07;;
9370;SDS011;4725;48.384;8.984;2024-01-30T04:12:53;4.53;;;2.60;;
9370;SDS011;4725;48.384;8.984;2024-01-30T04:15:21;4.60;;;3.10;;
9370;SDS011;4725;48.384;8.984;2024-01-30T04:17:48;2.73;;;2.40;;
9370;SDS011;4725;48.384;8.984;2024-01-30T04:20:15;2.07;;;1.60;;
9370;SDS011;4725;48.384;8.984;2024-01-30T04:22:44;2.20;;;1.70;;
9370;SDS011;4725;48.384;8.984;2024-01-30T04:25:11;3.43;;;1.93;;
9370;SDS011;4725;48.384;8.984;2024-01-30T04:27:39;2.63;;;1.87;;
9370;SDS011;4725;48.384;8.984;2024-01-30T04:30:06;2.80;;;1.93;;
9370;SDS011;4725;48.384;8.984;2024-01-30T04:32:34;5.83;;;1.80;;
9370;SDS011;4725;48.384;8.984;2024-01-30T04:35:01;2.60;;;2.07;;
9370;SDS011;4725;48.384;8.984;2024-01-30T04:37:28;2.97;;;2.10;;
9370;SDS011;4725;48.384;8.984;2024-01-30T04:39:56;3.03;;;1.80;;
9370;SDS011;4725;48.384;8.984;2024-01-30T04:42:23;3.00;;;2.03;;
9370;SDS011;4725;48.384;8.984;2024-01-30T04:44:50;3.50;;;2.23;;
9370;SDS011;4725;48.384;8.984;2024-01-30T04:47:17;2.50;;;1.47;;
9370;SDS011;4725;48.384;8.984;2024-01-30T04:49:44;6.23;;;1.70;;
9370;SDS011;4725;48.384;8.984;2024-01-30T04:52:11;3.63;;;1.70;;
9370;SDS011;4725;48.384;8.984;2024-01-30T04:54:38;2.80;;;1.93;;
9370;SDS011;4725;48.384;8.984;2024-01-30T04:57:07;2.70;;;1.90;;
9370;SDS011;4725;48.384;8.984;2024-01-30T04:59:37;3.80;;;2.30;;
9370;SDS011;4725;48.384;8.984;2024-01-30T05:02:04;3.37;;;1.70;;
9370;SDS011;4725;48.384;8.984;2024-01-30T05:04:32;3.13;;;2.03;;
9370;SDS011;4725;48.384;8.984;2024-01-30T05:06:58;3.37;;;1.70;;
9370;SDS011;4725;48.384;8.984;2024-01-30T05:09:26;6.57;;;2.50;;
9370;SDS011;4725;48.384;8.984;2024-01-30T05:11:53;3.50;;;2.30;;
9370;SDS011;4725;48.384;8.984;2024-01-30T05:14:21;2.83;;;1.93;;
9370;SDS011;4725;48.384;8.984;2024-01-30T05:16:48;6.33;;;1.83;;
9370;SDS011;4725;48.384;8.984;2024-01-30T05:19:15;3.43;;;1.80;;
9370;SDS011;4725;48.384;8.984;2024-01-30T05:21:42;5.37;;;2.23;;
9370;SDS011;4725;48.384;8.984;2024-01-30T05:24:09;2.70;;;2.00;;
9370;SDS011;4725;48.384;8.984;2024-01-30T05:26:36;2.87;;;1.67;;
9370;SDS011;4725;48.384;8.984;2024-01-30T05:29:03;2.20;;;1.70;;
9370;SDS011;4725;48.384;8.984;2024-01-30T05:31:31;2.67;;;1.60;;
9370;SDS011;4725;48.384;8.984;2024-01-30T05:33:59;2.00;;;1.50;;
9370;SDS011;4725;48.384;8.984;2024-01-30T05:36:26;2.53;;;1.30;;
9370;SDS011;4725;48.384;8.984;2024-01-30T05:38:53;2.10;;;1.50;;
9370;SDS011;4725;48.384;8.984;2024-01-30T05:41:20;2.53;;;1.63;;
9370;SDS011;4725;48.384;8.984;2024-01-30T05:43:47;3.30;;;2.30;;
9370;SDS011;4725;48.384;8.984;2024-01-30T05:46:14;3.33;;;2.60;;
9370;SDS011;4725;48.384;8.984;2024-01-30T05:48:42;4.10;;;2.70;;
9370;SDS011;4725;48.384;8.984;2024-01-30T05:51:09;7.37;;;4.03;;
9370;SDS011;4725;48.384;8.984;2024-01-30T05:53:36;15.93;;;8.17;;
9370;SDS011;4725;48.384;8.984;2024-01-30T05:56:04;21.30;;;11.97;;
9370;SDS011;4725;48.384;8.984;2024-01-30T05:58:31;16.30;;;9.67;;
9370;SDS011;4725;48.384;8.984;2024-01-30T06:00:58;8.63;;;6.03;;
9370;SDS011;4725;48.384;8.984;2024-01-30T06:03:25;5.20;;;3.40;;
9370;SDS011;4725;48.384;8.984;2024-01-30T06:05:54;4.57;;;2.90;;
9370;SDS011;4725;48.384;8.984;2024-01-30T06:08:19;2.60;;;2.03;;
9370;SDS011;4725;48.384;8.984;2024-01-30T06:10:47;3.83;;;1.80;;
9370;SDS011;4725;48.384;8.984;2024-01-30T06:13:14;2.53;;;1.70;;
9370;SDS011;4725;48.384;8.984;2024-01-30T06:15:41;6.00;;;2.70;;
9370;SDS011;4725;48.384;8.984;2024-01-30T06:18:07;5.90;;;2.23;;
9370;SDS011;4725;48.384;8.984;2024-01-30T06:20:35;3.83;;;2.37;;
9370;SDS011;4725;48.384;8.984;2024-01-30T06:23:03;4.50;;;2.47;;
9370;SDS011;4725;48.384;8.984;2024-01-30T06:25:30;3.90;;;2.20;;
9370;SDS011;4725;48.384;8.984;2024-01-30T06:27:57;3.13;;;2.03;;
9370;SDS011;4725;48.384;8.984;2024-01-30T06:30:24;2.83;;;2.17;;
9370;SDS011;4725;48.384;8.984;2024-01-30T06:32:51;3.43;;;2.10;;
9370;SDS011;4725;48.384;8.984;2024-01-30T06:35:18;3.43;;;2.10;;
9370;SDS011;4725;48.384;8.984;2024-01-30T06:37:46;4.33;;;2.60;;
9370;SDS011;4725;48.384;8.984;2024-01-30T06:40:15;2.77;;;2.30;;
9370;SDS011;4725;48.384;8.984;2024-01-30T06:42:42;8.70;;;3.47;;
9370;SDS011;4725;48.384;8.984;2024-01-30T06:45:09;5.50;;;3.07;;
9370;SDS011;4725;48.384;8.984;2024-01-30T06:47:36;6.70;;;3.53;;
9370;SDS011;4725;48.384;8.984;2024-01-30T06:50:03;3.90;;;2.77;;
9370;SDS011;4725;48.384;8.984;2024-01-30T06:52:30;3.00;;;2.50;;
9370;SDS011;4725;48.384;8.984;2024-01-30T06:54:57;3.97;;;2.60;;
9370;SDS011;4725;48.384;8.984;2024-01-30T06:57:25;4.10;;;2.27;;
9370;SDS011;4725;48.384;8.984;2024-01-30T06:59:53;7.20;;;2.40;;
9370;SDS011;4725;48.384;8.984;2024-01-30T07:02:21;3.30;;;2.40;;
9370;SDS011;4725;48.384;8.984;2024-01-30T07:04:48;3.17;;;2.03;;
9370;SDS011;4725;48.384;8.984;2024-01-30T07:07:15;4.00;;;2.43;;
9370;SDS011;4725;48.384;8.984;2024-01-30T07:09:42;2.70;;;1.87;;
9370;SDS011;4725;48.384;8.984;2024-01-30T07:12:09;2.93;;;2.20;;
9370;SDS011;4725;48.384;8.984;2024-01-30T07:14:38;3.60;;;1.97;;
9370;SDS011;4725;48.384;8.984;2024-01-30T07:17:05;3.93;;;2.03;;
9370;SDS011;4725;48.384;8.984;2024-01-30T07:19:32;4.10;;;1.97;;
9370;SDS011;4725;48.384;8.984;2024-01-30T07:22:00;2.80;;;1.67;;
9370;SDS011;4725;48.384;8.984;2024-01-30T07:24:27;3.23;;;1.87;;
9370;SDS011;4725;48.384;8.984;2024-01-30T07:26:54;3.73;;;2.07;;
9370;SDS011;4725;48.384;8.984;2024-01-30T07:29:21;2.83;;;1.83;;
9370;SDS011;4725;48.384;8.984;2024-01-30T07:31:49;3.27;;;1.97;;
9370;SDS011;4725;48.384;8.984;2024-01-30T07:34:16;2.77;;;1.50;;
9370;SDS011;4725;48.384;8.984;2024-01-30T07:36:43;2.10;;;1.67;;
9370;SDS011;4725;48.384;8.984;2024-01-30T07:39:12;4.63;;;2.97;;
9370;SDS011;4725;48.384;8.984;2024-01-30T07:41:38;4.73;;;2.60;;
9370;SDS011;4725;48.384;8.984;2024-01-30T07:44:05;3.97;;;2.50;;
9370;SDS011;4725;48.384;8.984;2024-01-30T07:46:32;3.13;;;2.07;;
9370;SDS011;4725;48.384;8.984;2024-01-30T07:49:00;3.93;;;2.10;;
9370;SDS011;4725;48.384;8.984;2024-01-30T07:51:28;7.73;;;2.20;;
9370;SDS011;4725;48.384;8.984;2024-01-30T07:54:00;6.23;;;2.70;;
9370;SDS011;4725;48.384;8.984;2024-01-30T07:56:27;9.23;;;3.50;;
9370;SDS011;4725;48.384;8.984;2024-01-30T07:58:53;3.00;;;2.20;;
9370;SDS011;4725;48.384;8.984;2024-01-30T08:01:20;5.63;;;2.57;;
9370;SDS011;4725;48.384;8.984;2024-01-30T08:03:48;3.10;;;1.90;;
9370;SDS011;4725;48.384;8.984;2024-01-30T08:06:16;2.83;;;2.20;;
9370;SDS011;4725;48.384;8.984;2024-01-30T08:08:43;5.13;;;2.90;;
9370;SDS011;4725;48.384;8.984;2024-01-30T08:11:10;4.47;;;2.70;;
9370;SDS011;4725;48.384;8.984;2024-01-30T08:13:38;3.93;;;2.10;;
9370;SDS011;4725;48.384;8.984;2024-01-30T08:16:05;3.57;;;1.90;;
9370;SDS011;4725;48.384;8.984;2024-01-30T08:18:32;5.73;;;2.83;;
9370;SDS011;4725;48.384;8.984;2024-01-30T08:20:59;7.47;;;5.00;;
9370;SDS011;4725;48.384;8.984;2024-01-30T08:23:27;7.70;;;4.73;;
9370;SDS011;4725;48.384;8.984;2024-01-30T08:25:54;5.47;;;3.47;;
9370;SDS011;4725;48.384;8.984;2024-01-30T08:28:21;7.73;;;4.97;;
9370;SDS011;4725;48.384;8.984;2024-01-30T08:30:48;10.67;;;7.93;;
9370;SDS011;4725;48.384;8.984;2024-01-30T08:33:15;26.40;;;16.13;;
9370;SDS011;4725;48.384;8.984;2024-01-30T08:35:42;25.27;;;14.80;;
9370;SDS011;4725;48.384;8.984;2024-01-30T08:38:09;15.23;;;9.90;;
9370;SDS011;4725;48.384;8.984;2024-01-30T08:40:38;15.60;;;8.50;;
9370;SDS011;4725;48.384;8.984;2024-01-30T08:43:05;11.70;;;9.10;;
9370;SDS011;4725;48.384;8.984;2024-01-30T08:45:33;13.37;;;8.60;;
9370;SDS011;4725;48.384;8.984;2024-01-30T08:48:00;11.60;;;8.50;;
9370;SDS011;4725;48.384;8.984;2024-01-30T08:50:27;14.47;;;9.63;;
9370;SDS011;4725;48.384;8.984;2024-01-30T08:52:54;4.43;;;3.27;;
9370;SDS011;4725;48.384;8.984;2024-01-30T08:55:22;10.07;;;3.23;;
9370;SDS011;4725;48.384;8.984;2024-01-30T08:57:50;4.73;;;2.90;;
9370;SDS011;4725;48.384;8.984;2024-01-30T09:00:18;6.30;;;3.23;;
9370;SDS011;4725;48.384;8.984;2024-01-30T09:02:45;5.37;;;2.77;;
9370;SDS011;4725;48.384;8.984;2024-01-30T09:05:12;5.87;;;2.83;;
9370;SDS011;4725;48.384;8.984;2024-01-30T09:07:39;5.53;;;3.00;;
9370;SDS011;4725;48.384;8.984;2024-01-30T09:10:06;8.13;;;3.23;;
9370;SDS011;4725;48.384;8.984;2024-01-30T09:12:33;5.17;;;3.03;;
9370;SDS011;4725;48.384;8.984;2024-01-30T09:15:01;31.70;;;16.90;;
9370;SDS011;4725;48.384;8.984;2024-01-30T09:17:29;36.27;;;20.93;;
9370;SDS011;4725;48.384;8.984;2024-01-30T09:19:56;50.50;;;27.07;;
9370;SDS011;4725;48.384;8.984;2024-01-30T09:22:22;44.80;;;23.80;;
9370;SDS011;4725;48.384;8.984;2024-01-30T09:24:49;42.37;;;24.57;;
9370;SDS011;4725;48.384;8.984;2024-01-30T09:27:16;45.00;;;25.50;;
9370;SDS011;4725;48.384;8.984;2024-01-30T09:29:43;47.93;;;28.63;;
9370;SDS011;4725;48.384;8.984;2024-01-30T09:32:12;51.17;;;27.10;;
9370;SDS011;4725;48.384;8.984;2024-01-30T09:34:38;24.37;;;14.03;;
9370;SDS011;4725;48.384;8.984;2024-01-30T09:37:06;11.13;;;5.77;;
9370;SDS011;4725;48.384;8.984;2024-01-30T09:39:33;18.70;;;10.20;;
9370;SDS011;4725;48.384;8.984;2024-01-30T09:42:01;13.57;;;6.67;;
9370;SDS011;4725;48.384;8.984;2024-01-30T09:44:31;3.30;;;2.20;;
9370;SDS011;4725;48.384;8.984;2024-01-30T09:47:01;3.27;;;1.80;;
9370;SDS011;4725;48.384;8.984;2024-01-30T09:49:31;3.13;;;2.10;;
9370;SDS011;4725;48.384;8.984;2024-01-30T09:51:58;5.30;;;2.30;;
9370;SDS011;4725;48.384;8.984;2024-01-30T09:54:25;3.65;;;2.35;;
9370;SDS011;4725;48.384;8.984;2024-01-30T09:56:52;5.53;;;2.93;;
9370;SDS011;4725;48.384;8.984;2024-01-30T09:59:19;3.97;;;2.00;;
9370;SDS011;4725;48.384;8.984;2024-01-30T10:01:46;5.38;;;2.58;;
9370;SDS011;4725;48.384;8.984;2024-01-30T10:04:13;2.28;;;2.00;;
9370;SDS011;4725;48.384;8.984;2024-01-30T10:06:41;2.08;;;1.88;;
9370;SDS011;4725;48.384;8.984;2024-01-30T10:09:08;2.30;;;1.73;;
9370;SDS011;4725;48.384;8.984;2024-01-30T10:11:35;2.80;;;1.98;;
9370;SDS011;4725;48.384;8.984;2024-01-30T10:14:02;3.45;;;1.98;;
9370;SDS011;4725;48.384;8.984;2024-01-30T10:16:29;2.58;;;1.70;;
9370;SDS011;4725;48.384;8.984;2024-01-30T10:18:56;11.27;;;2.28;;
9370;SDS011;4725;48.384;8.984;2024-01-30T10:21:23;4.88;;;2.22;;
9370;SDS011;4725;48.384;8.984;2024-01-30T10:23:51;5.05;;;1.92;;
9370;SDS011;4725;48.384;8.984;2024-01-30T10:26:19;2.25;;;1.85;;
9370;SDS011;4725;48.384;8.984;2024-01-30T10:28:47;4.30;;;2.28;;
9370;SDS011;4725;48.384;8.984;2024-01-30T10:31:16;5.05;;;2.20;;
9370;SDS011;4725;48.384;8.984;2024-01-30T10:33:44;7.03;;;2.28;;
9370;SDS011;4725;48.384;8.984;2024-01-30T10:36:10;6.10;;;4.25;;
9370;SDS011;4725;48.384;8.984;2024-01-30T10:38:40;4.50;;;3.38;;
9370;SDS011;4725;48.384;8.984;2024-01-30T10:41:12;4.57;;;3.95;;
9370;SDS011;4725;48.384;8.984;2024-01-30T10:43:42;7.63;;;3.42;;
9370;SDS011;4725;48.384;8.984;2024-01-30T10:46:21;5.18;;;3.45;;
9370;SDS011;4725;48.384;8.984;2024-01-30T10:48:53;4.95;;;4.45;;
9370;SDS011;4725;48.384;8.984;2024-01-30T10:51:24;8.32;;;5.82;;
9370;SDS011;4725;48.384;8.984;2024-01-30T10:53:53;8.23;;;6.93;;
9370;SDS011;4725;48.384;8.984;2024-01-30T10:56:23;7.15;;;6.15;;
9370;SDS011;4725;48.384;8.984;2024-01-30T10:58:51;3.72;;;3.35;;
9370;SDS011;4725;48.384;8.984;2024-01-30T11:01:18;4.40;;;3.33;;
9370;SDS011;4725;48.384;8.984;2024-01-30T11:03:44;4.75;;;3.10;;
9370;SDS011;4725;48.384;8.984;2024-01-30T11:06:12;5.07;;;3.42;;
9370;SDS011;4725;48.384;8.984;2024-01-30T11:08:39;4.68;;;3.08;;
9370;SDS011;4725;48.384;8.984;2024-01-30T11:11:08;10.57;;;3.85;;
9370;SDS011;4725;48.384;8.984;2024-01-30T11:13:37;4.55;;;3.25;;
9370;SDS011;4725;48.384;8.984;2024-01-30T11:16:04;9.30;;;4.70;;
9370;SDS011;4725;48.384;8.984;2024-01-30T11:18:32;12.20;;;7.20;;
9370;SDS011;4725;48.384;8.984;2024-01-30T11:21:01;11.30;;;6.03;;
9370;SDS011;4725;48.384;8.984;2024-01-30T11:23:33;7.22;;;6.25;;
9370;SDS011;4725;48.384;8.984;2024-01-30T11:26:00;7.93;;;4.30;;
9370;SDS011;4725;48.384;8.984;2024-01-30T11:28:31;5.00;;;3.58;;
9370;SDS011;4725;48.384;8.984;2024-01-30T11:31:04;5.15;;;3.28;;
9370;SDS011;4725;48.384;8.984;2024-01-30T11:33:32;4.60;;;2.70;;
9370;SDS011;4725;48.384;8.984;2024-01-30T11:35:59;3.75;;;2.40;;
9370;SDS011;4725;48.384;8.984;2024-01-30T11:38:27;2.75;;;2.08;;
9370;SDS011;4725;48.384;8.984;2024-01-30T11:40:54;3.33;;;2.45;;
9370;SDS011;4725;48.384;8.984;2024-01-30T11:43:22;6.07;;;4.40;;
9370;SDS011;4725;48.384;8.984;2024-01-30T11:45:49;9.35;;;3.80;;
9370;SDS011;4725;48.384;8.984;2024-01-30T11:48:18;6.53;;;3.53;;
9370;SDS011;4725;48.384;8.984;2024-01-30T11:50:45;6.53;;;3.95;;
9370;SDS011;4725;48.384;8.984;2024-01-30T11:53:12;3.88;;;2.97;;
9370;SDS011;4725;48.384;8.984;2024-01-30T11:55:39;6.53;;;3.28;;
9370;SDS011;4725;48.384;8.984;2024-01-30T11:58:06;3.88;;;2.47;;
9370;SDS011;4725;48.384;8.984;2024-01-30T12:00:33;4.00;;;2.70;;
9370;SDS011;4725;48.384;8.984;2024-01-30T12:03:00;3.10;;;2.10;;
9370;SDS011;4725;48.384;8.984;2024-01-30T12:05:29;2.97;;;2.45;;
9370;SDS011;4725;48.384;8.984;2024-01-30T12:07:56;7.97;;;2.30;;
9370;SDS011;4725;48.384;8.984;2024-01-30T12:10:24;3.17;;;2.35;;
9370;SDS011;4725;48.384;8.984;2024-01-30T12:12:52;4.50;;;2.47;;
9370;SDS011;4725;48.384;8.984;2024-01-30T12:15:21;3.67;;;2.30;;
9370;SDS011;4725;48.384;8.984;2024-01-30T12:17:48;3.53;;;2.80;;
9370;SDS011;4725;48.384;8.984;2024-01-30T12:20:18;3.45;;;2.55;;
9370;SDS011;4725;48.384;8.984;2024-01-30T12:22:48;3.35;;;2.70;;
9370;SDS011;4725;48.384;8.984;2024-01-30T12:25:16;3.42;;;2.78;;
9370;SDS011;4725;48.384;8.984;2024-01-30T12:27:44;2.83;;;2.42;;
9370;SDS011;4725;48.384;8.984;2024-01-30T12:30:15;3.42;;;2.65;;
9370;SDS011;4725;48.384;8.984;2024-01-30T12:32:43;2.53;;;2.20;;
9370;SDS011;4725;48.384;8.984;2024-01-30T12:35:11;5.97;;;2.60;;
9370;SDS011;4725;48.384;8.984;2024-01-30T12:37:39;3.33;;;2.33;;
9370;SDS011;4725;48.384;8.984;2024-01-30T12:40:08;7.53;;;6.05;;
9370;SDS011;4725;48.384;8.984;2024-01-30T12:42:36;4.13;;;2.83;;
9370;SDS011;4725;48.384;8.984;2024-01-30T12:45:04;4.30;;;3.00;;
9370;SDS011;4725;48.384;8.984;2024-01-30T12:47:31;4.47;;;3.38;;
9370;SDS011;4725;48.384;8.984;2024-01-30T12:49:58;4.50;;;2.90;;
9370;SDS011;4725;48.384;8.984;2024-01-30T12:52:25;3.03;;;2.60;;
9370;SDS011;4725;48.384;8.984;2024-01-30T12:54:52;5.47;;;2.88;;
9370;SDS011;4725;48.384;8.984;2024-01-30T12:57:20;6.00;;;3.40;;
9370;SDS011;4725;48.384;8.984;2024-01-30T12:59:47;6.15;;;3.42;;
9370;SDS011;4725;48.384;8.984;2024-01-30T13:02:15;4.00;;;3.50;;
9370;SDS011;4725;48.384;8.984;2024-01-30T13:04:42;4.88;;;3.15;;
9370;SDS011;4725;48.384;8.984;2024-01-30T13:07:09;6.93;;;3.17;;
9370;SDS011;4725;48.384;8.984;2024-01-30T13:09:36;5.50;;;3.83;;
9370;SDS011;4725;48.384;8.984;2024-01-30T13:12:03;5.50;;;3.85;;
9370;SDS011;4725;48.384;8.984;2024-01-30T13:14:32;4.35;;;3.13;;
9370;SDS011;4725;48.384;8.984;2024-01-30T13:16:59;5.28;;;3.08;;
9370;SDS011;4725;48.384;8.984;2024-01-30T13:19:26;6.88;;;3.80;;
9370;SDS011;4725;48.384;8.984;2024-01-30T13:21:53;4.25;;;3.50;;
9370;SDS011;4725;48.384;8.984;2024-01-30T13:24:20;7.03;;;3.95;;
9370;SDS011;4725;48.384;8.984;2024-01-30T13:26:47;4.32;;;2.90;;
9370;SDS011;4725;48.384;8.984;2024-01-30T13:29:14;5.50;;;3.47;;
9370;SDS011;4725;48.384;8.984;2024-01-30T13:31:42;5.70;;;3.67;;
9370;SDS011;4725;48.384;8.984;2024-01-30T13:34:11;7.78;;;3.17;;
9370;SDS011;4725;48.384;8.984;2024-01-30T13:36:38;5.88;;;2.92;;
9370;SDS011;4725;48.384;8.984;2024-01-30T13:39:06;4.88;;;3.58;;
9370;SDS011;4725;48.384;8.984;2024-01-30T13:41:34;3.72;;;3.00;;
9370;SDS011;4725;48.384;8.984;2024-01-30T13:44:01;3.95;;;2.70;;
9370;SDS011;4725;48.384;8.984;2024-01-30T13:46:28;6.82;;;3.05;;
9370;SDS011;4725;48.384;8.984;2024-01-30T13:48:56;5.28;;;2.92;;
9370;SDS011;4725;48.384;8.984;2024-01-30T13:51:23;3.38;;;2.63;;
9370;SDS011;4725;48.384;8.984;2024-01-30T13:53:50;5.43;;;2.88;;
9370;SDS011;4725;48.384;8.984;2024-01-30T13:56:17;4.47;;;2.70;;
9370;SDS011;4725;48.384;8.984;2024-01-30T13:58:44;3.80;;;2.88;;
9370;SDS011;4725;48.384;8.984;2024-01-30T14:01:11;5.07;;;2.67;;
9370;SDS011;4725;48.384;8.984;2024-01-30T14:03:38;4.65;;;3.22;;
9370;SDS011;4725;48.384;8.984;2024-01-30T14:06:06;3.28;;;2.50;;
9370;SDS011;4725;48.384;8.984;2024-01-30T14:08:33;5.45;;;2.90;;
9370;SDS011;4725;48.384;8.984;2024-01-30T14:11:00;3.08;;;2.75;;
9370;SDS011;4725;48.384;8.984;2024-01-30T14:13:28;5.35;;;2.80;;
9370;SDS011;4725;48.384;8.984;2024-01-30T14:15:56;5.18;;;2.50;;
9370;SDS011;4725;48.384;8.984;2024-01-30T14:18:22;2.80;;;2.50;;
9370;SDS011;4725;48.384;8.984;2024-01-30T14:20:50;3.92;;;2.63;;
9370;SDS011;4725;48.384;8.984;2024-01-30T14:23:18;2.85;;;2.55;;
9370;SDS011;4725;48.384;8.984;2024-01-30T14:25:46;5.65;;;2.28;;
9370;SDS011;4725;48.384;8.984;2024-01-30T14:28:14;2.67;;;2.20;;
9370;SDS011;4725;48.384;8.984;2024-01-30T14:30:40;3.85;;;2.22;;
9370;SDS011;4725;48.384;8.984;2024-01-30T14:33:08;2.58;;;2.03;;
9370;SDS011;4725;48.384;8.984;2024-01-30T14:35:34;2.30;;;1.90;;
9370;SDS011;4725;48.384;8.984;2024-01-30T14:38:02;2.67;;;2.00;;
9370;SDS011;4725;48.384;8.984;2024-01-30T14:40:31;2.13;;;1.90;;
9370;SDS011;4725;48.384;8.984;2024-01-30T14:42:58;3.92;;;2.63;;
9370;SDS011;4725;48.384;8.984;2024-01-30T14:45:25;2.17;;;1.85;;
9370;SDS011;4725;48.384;8.984;2024-01-30T14:47:51;2.17;;;1.83;;
9370;SDS011;4725;48.384;8.984;2024-01-30T14:50:20;2.58;;;2.20;;
9370;SDS011;4725;48.384;8.984;2024-01-30T14:52:47;4.05;;;1.83;;
9370;SDS011;4725;48.384;8.984;2024-01-30T14:55:14;4.22;;;2.47;;
9370;SDS011;4725;48.384;8.984;2024-01-30T14:57:42;2.85;;;1.77;;
9370;SDS011;4725;48.384;8.984;2024-01-30T15:00:10;3.55;;;2.35;;
9370;SDS011;4725;48.384;8.984;2024-01-30T15:02:39;6.00;;;2.30;;
9370;SDS011;4725;48.384;8.984;2024-01-30T15:05:06;1.90;;;1.65;;
9370;SDS011;4725;48.384;8.984;2024-01-30T15:07:33;4.63;;;2.80;;
9370;SDS011;4725;48.384;8.984;2024-01-30T15:10:01;3.50;;;1.83;;
9370;SDS011;4725;48.384;8.984;2024-01-30T15:12:28;3.28;;;2.20;;
9370;SDS011;4725;48.384;8.984;2024-01-30T15:14:56;2.90;;;2.20;;
9370;SDS011;4725;48.384;8.984;2024-01-30T15:17:23;2.25;;;2.00;;